sensor_id;sensor_type;location;lat;lon;timestamp;P1;durP1;ratioP1;P2;durP2;ratioP2
23080;SDS011;11708;50.570;8.532;2022-08-21T00:00:07;6.53;;;5.10;;
23080;SDS011;11708;50.570;8.532;2022-08-21T00:02:35;7.53;;;5.65;;
23080;SDS011;11708;50.570;8.532;2022-08-21T00:05:02;7.43;;;5.30;;
23080;SDS011;11708;50.570;8.532;2022-08-21T00:07:28;8.88;;;5.53;;
23080;SDS011;11708;50.570;8.532;2022-08-21T00:09:54;6.47;;;5.40;;
23080;SDS011;11708;50.570;8.532;2022-08-21T00:12:20;10.88;;;5.70;;
23080;SDS011;11708;50.570;8.532;2022-08-21T00:14:46;8.15;;;5.25;;
23080;SDS011;11708;50.570;8.532;2022-08-21T00:17:12;8.05;;;5.72;;
23080;SDS011;11708;50.570;8.532;2022-08-21T00:19:37;10.10;;;6.35;;
23080;SDS011;11708;50.570;8.532;2022-08-21T00:22:03;8.75;;;5.20;;
23080;SDS011;11708;50.570;8.532;2022-08-21T00:24:28;6.45;;;5.32;;
23080;SDS011;11708;50.570;8.532;2022-08-21T00:26:54;9.82;;;6.25;;
23080;SDS011;11708;50.570;8.532;2022-08-21T00:29:19;7.93;;;5.68;;
23080;SDS011;11708;50.570;8.532;2022-08-21T00:31:45;10.43;;;6.00;;
23080;SDS011;11708;50.570;8.532;2022-08-21T00:34:11;7.85;;;5.88;;
23080;SDS011;11708;50.570;8.532;2022-08-21T00:36:38;11.52;;;6.82;;
23080;SDS011;11708;50.570;8.532;2022-08-21T00:39:04;11.48;;;6.95;;
23080;SDS011;11708;50.570;8.532;2022-08-21T00:41:35;11.50;;;6.85;;
23080;SDS011;11708;50.570;8.532;2022-08-21T00:44:03;9.85;;;6.82;;
23080;SDS011;11708;50.570;8.532;2022-08-21T00:46:29;9.98;;;7.22;;
23080;SDS011;11708;50.570;8.532;2022-08-21T00:48:55;8.68;;;7.13;;
23080;SDS011;11708;50.570;8.532;2022-08-21T00:51:55;13.00;;;7.57;;
23080;SDS011;11708;50.570;8.532;2022-08-21T00:54:24;11.88;;;7.47;;
23080;SDS011;11708;50.570;8.532;2022-08-21T00:56:53;8.65;;;7.10;;
23080;SDS011;11708;50.570;8.532;2022-08-21T00:59:21;11.40;;;7.03;;
23080;SDS011;11708;50.570;8.532;2022-08-21T01:01:48;12.32;;;7.60;;
23080;SDS011;11708;50.570;8.532;2022-08-21T01:04:14;12.63;;;7.38;;
23080;SDS011;11708;50.570;8.532;2022-08-21T01:06:41;13.63;;;7.30;;
23080;SDS011;11708;50.570;8.532;2022-08-21T01:09:07;11.68;;;7.30;;
23080;SDS011;11708;50.570;8.532;2022-08-21T01:11:33;8.82;;;6.97;;
23080;SDS011;11708;50.570;8.532;2022-08-21T01:14:02;11.15;;;7.65;;
23080;SDS011;11708;50.570;8.532;2022-08-21T01:16:28;10.63;;;6.90;;
23080;SDS011;11708;50.570;8.532;2022-08-21T01:18:54;8.88;;;6.70;;
23080;SDS011;11708;50.570;8.532;2022-08-21T01:21:21;11.20;;;6.90;;
23080;SDS011;11708;50.570;8.532;2022-08-21T01:23:50;10.98;;;7.10;;
23080;SDS011;11708;50.570;8.532;2022-08-21T01:26:19;8.98;;;7.18;;
23080;SDS011;11708;50.570;8.532;2022-08-21T01:29:08;10.23;;;7.03;;
23080;SDS011;11708;50.570;8.532;2022-08-21T01:31:57;8.85;;;6.68;;
23080;SDS011;11708;50.570;8.532;2022-08-21T01:34:23;10.52;;;7.38;;
23080;SDS011;11708;50.570;8.532;2022-08-21T01:36:49;10.75;;;7.60;;
23080;SDS011;11708;50.570;8.532;2022-08-21T01:39:15;9.13;;;6.95;;
23080;SDS011;11708;50.570;8.532;2022-08-21T01:41:41;12.30;;;6.88;;
23080;SDS011;11708;50.570;8.532;2022-08-21T01:44:07;9.35;;;6.90;;
23080;SDS011;11708;50.570;8.532;2022-08-21T01:46:32;12.27;;;7.32;;
23080;SDS011;11708;50.570;8.532;2022-08-21T01:49:02;9.63;;;6.85;;
23080;SDS011;11708;50.570;8.532;2022-08-21T01:51:28;13.10;;;6.55;;
23080;SDS011;11708;50.570;8.532;2022-08-21T01:53:54;11.95;;;7.03;;
23080;SDS011;11708;50.570;8.532;2022-08-21T01:56:19;9.02;;;7.03;;
23080;SDS011;11708;50.570;8.532;2022-08-21T01:58:46;10.70;;;7.20;;
23080;SDS011;11708;50.570;8.532;2022-08-21T02:01:12;12.95;;;6.53;;
23080;SDS011;11708;50.570;8.532;2022-08-21T02:03:38;10.15;;;6.80;;
23080;SDS011;11708;50.570;8.532;2022-08-21T02:06:05;10.93;;;6.93;;
23080;SDS011;11708;50.570;8.532;2022-08-21T02:08:31;11.50;;;7.38;;
23080;SDS011;11708;50.570;8.532;2022-08-21T02:10:57;14.45;;;7.93;;
23080;SDS011;11708;50.570;8.532;2022-08-21T02:13:26;9.30;;;7.32;;
23080;SDS011;11708;50.570;8.532;2022-08-21T02:15:51;11.88;;;7.22;;
23080;SDS011;11708;50.570;8.532;2022-08-21T02:18:17;10.20;;;7.13;;
23080;SDS011;11708;50.570;8.532;2022-08-21T02:20:44;11.18;;;7.28;;
23080;SDS011;11708;50.570;8.532;2022-08-21T02:23:15;11.40;;;6.90;;
23080;SDS011;11708;50.570;8.532;2022-08-21T02:25:41;11.38;;;7.43;;
23080;SDS011;11708;50.570;8.532;2022-08-21T02:28:09;11.73;;;7.05;;
23080;SDS011;11708;50.570;8.532;2022-08-21T02:30:38;10.20;;;7.05;;
23080;SDS011;11708;50.570;8.532;2022-08-21T02:33:07;10.38;;;6.82;;
23080;SDS011;11708;50.570;8.532;2022-08-21T02:35:34;10.60;;;7.20;;
23080;SDS011;11708;50.570;8.532;2022-08-21T02:38:04;9.98;;;7.38;;
23080;SDS011;11708;50.570;8.532;2022-08-21T02:40:34;11.90;;;7.60;;
23080;SDS011;11708;50.570;8.532;2022-08-21T02:43:02;10.85;;;7.63;;
23080;SDS011;11708;50.570;8.532;2022-08-21T02:45:31;11.70;;;7.95;;
23080;SDS011;11708;50.570;8.532;2022-08-21T02:47:58;10.90;;;7.57;;
23080;SDS011;11708;50.570;8.532;2022-08-21T02:50:28;13.60;;;7.40;;
23080;SDS011;11708;50.570;8.532;2022-08-21T02:52:55;10.55;;;7.53;;
23080;SDS011;11708;50.570;8.532;2022-08-21T02:55:22;11.90;;;7.45;;
23080;SDS011;11708;50.570;8.532;2022-08-21T02:57:50;9.45;;;7.20;;
23080;SDS011;11708;50.570;8.532;2022-08-21T03:00:16;12.55;;;7.22;;
23080;SDS011;11708;50.570;8.532;2022-08-21T03:02:41;8.85;;;6.97;;
23080;SDS011;11708;50.570;8.532;2022-08-21T03:05:08;11.18;;;7.30;;
23080;SDS011;11708;50.570;8.532;2022-08-21T03:07:35;10.18;;;7.82;;
23080;SDS011;11708;50.570;8.532;2022-08-21T03:10:05;9.65;;;7.32;;
23080;SDS011;11708;50.570;8.532;2022-08-21T03:12:31;12.57;;;7.43;;
23080;SDS011;11708;50.570;8.532;2022-08-21T03:14:57;11.23;;;7.55;;
23080;SDS011;11708;50.570;8.532;2022-08-21T03:20:20;13.65;;;8.02;;
23080;SDS011;11708;50.570;8.532;2022-08-21T03:22:48;12.77;;;7.63;;
23080;SDS011;11708;50.570;8.532;2022-08-21T03:25:15;14.05;;;8.20;;
23080;SDS011;11708;50.570;8.532;2022-08-21T03:27:41;14.88;;;7.68;;
23080;SDS011;11708;50.570;8.532;2022-08-21T03:30:07;11.43;;;8.02;;
23080;SDS011;11708;50.570;8.532;2022-08-21T03:32:33;12.50;;;7.95;;
23080;SDS011;11708;50.570;8.532;2022-08-21T03:35:00;15.55;;;8.23;;
23080;SDS011;11708;50.570;8.532;2022-08-21T03:37:30;15.18;;;7.35;;
23080;SDS011;11708;50.570;8.532;2022-08-21T03:39:55;9.85;;;6.82;;
23080;SDS011;11708;50.570;8.532;2022-08-21T03:42:21;11.55;;;7.60;;
23080;SDS011;11708;50.570;8.532;2022-08-21T03:44:46;14.23;;;7.93;;
23080;SDS011;11708;50.570;8.532;2022-08-21T03:47:12;12.40;;;7.30;;
23080;SDS011;11708;50.570;8.532;2022-08-21T03:49:38;10.65;;;7.22;;
23080;SDS011;11708;50.570;8.532;2022-08-21T03:52:04;10.38;;;7.88;;
23080;SDS011;11708;50.570;8.532;2022-08-21T03:54:29;11.20;;;8.38;;
23080;SDS011;11708;50.570;8.532;2022-08-21T03:56:55;11.68;;;7.63;;
23080;SDS011;11708;50.570;8.532;2022-08-21T03:59:21;10.05;;;7.57;;
23080;SDS011;11708;50.570;8.532;2022-08-21T04:01:54;10.43;;;7.45;;
23080;SDS011;11708;50.570;8.532;2022-08-21T04:04:21;12.88;;;8.32;;
23080;SDS011;11708;50.570;8.532;2022-08-21T04:06:47;10.88;;;7.50;;
23080;SDS011;11708;50.570;8.532;2022-08-21T04:09:14;13.98;;;8.10;;
23080;SDS011;11708;50.570;8.532;2022-08-21T04:11:40;11.75;;;7.63;;
23080;SDS011;11708;50.570;8.532;2022-08-21T04:14:06;13.35;;;8.05;;
23080;SDS011;11708;50.570;8.532;2022-08-21T04:16:32;11.57;;;8.38;;
23080;SDS011;11708;50.570;8.532;2022-08-21T04:18:57;14.05;;;8.27;;
23080;SDS011;11708;50.570;8.532;2022-08-21T04:21:23;12.18;;;7.85;;
23080;SDS011;11708;50.570;8.532;2022-08-21T04:23:49;11.50;;;8.23;;
23080;SDS011;11708;50.570;8.532;2022-08-21T04:26:14;11.18;;;7.97;;
23080;SDS011;11708;50.570;8.532;2022-08-21T04:28:40;12.40;;;8.15;;
23080;SDS011;11708;50.570;8.532;2022-08-21T04:31:06;9.40;;;7.15;;
23080;SDS011;11708;50.570;8.532;2022-08-21T04:33:32;9.48;;;7.35;;
23080;SDS011;11708;50.570;8.532;2022-08-21T04:36:00;11.88;;;7.95;;
23080;SDS011;11708;50.570;8.532;2022-08-21T04:38:26;10.85;;;7.43;;
23080;SDS011;11708;50.570;8.532;2022-08-21T04:40:52;11.52;;;7.40;;
23080;SDS011;11708;50.570;8.532;2022-08-21T04:43:18;9.18;;;7.70;;
23080;SDS011;11708;50.570;8.532;2022-08-21T04:45:46;9.82;;;7.55;;
23080;SDS011;11708;50.570;8.532;2022-08-21T04:48:14;11.40;;;7.97;;
23080;SDS011;11708;50.570;8.532;2022-08-21T04:53:26;12.20;;;7.50;;
23080;SDS011;11708;50.570;8.532;2022-08-21T04:56:00;13.68;;;8.32;;
23080;SDS011;11708;50.570;8.532;2022-08-21T04:58:29;12.88;;;8.13;;
23080;SDS011;11708;50.570;8.532;2022-08-21T05:00:59;15.45;;;7.43;;
23080;SDS011;11708;50.570;8.532;2022-08-21T05:03:26;15.60;;;8.02;;
23080;SDS011;11708;50.570;8.532;2022-08-21T05:05:53;12.15;;;7.38;;
23080;SDS011;11708;50.570;8.532;2022-08-21T05:08:19;12.93;;;8.10;;
23080;SDS011;11708;50.570;8.532;2022-08-21T05:10:48;12.13;;;8.32;;
23080;SDS011;11708;50.570;8.532;2022-08-21T05:13:14;12.13;;;7.65;;
23080;SDS011;11708;50.570;8.532;2022-08-21T05:15:40;11.82;;;7.47;;
23080;SDS011;11708;50.570;8.532;2022-08-21T05:18:06;11.90;;;7.88;;
23080;SDS011;11708;50.570;8.532;2022-08-21T05:20:32;10.15;;;7.95;;
23080;SDS011;11708;50.570;8.532;2022-08-21T05:22:59;13.48;;;8.07;;
23080;SDS011;11708;50.570;8.532;2022-08-21T05:25:29;11.15;;;7.32;;
23080;SDS011;11708;50.570;8.532;2022-08-21T05:27:54;12.55;;;8.05;;
23080;SDS011;11708;50.570;8.532;2022-08-21T05:30:21;11.82;;;7.90;;
23080;SDS011;11708;50.570;8.532;2022-08-21T05:32:46;12.27;;;7.70;;
23080;SDS011;11708;50.570;8.532;2022-08-21T05:35:15;13.82;;;8.13;;
23080;SDS011;11708;50.570;8.532;2022-08-21T05:37:41;12.18;;;8.38;;
23080;SDS011;11708;50.570;8.532;2022-08-21T05:40:06;14.65;;;8.13;;
23080;SDS011;11708;50.570;8.532;2022-08-21T05:42:33;12.50;;;8.25;;
23080;SDS011;11708;50.570;8.532;2022-08-21T05:44:58;12.23;;;8.07;;
23080;SDS011;11708;50.570;8.532;2022-08-21T05:47:24;14.25;;;8.10;;
23080;SDS011;11708;50.570;8.532;2022-08-21T05:49:50;12.10;;;7.85;;
23080;SDS011;11708;50.570;8.532;2022-08-21T05:52:19;11.98;;;7.65;;
23080;SDS011;11708;50.570;8.532;2022-08-21T05:54:46;10.77;;;7.97;;
23080;SDS011;11708;50.570;8.532;2022-08-21T05:57:11;11.50;;;7.22;;
23080;SDS011;11708;50.570;8.532;2022-08-21T05:59:40;11.85;;;7.75;;
23080;SDS011;11708;50.570;8.532;2022-08-21T06:02:06;9.82;;;7.25;;
23080;SDS011;11708;50.570;8.532;2022-08-21T06:04:51;10.57;;;7.88;;
23080;SDS011;11708;50.570;8.532;2022-08-21T06:07:17;14.57;;;7.60;;
23080;SDS011;11708;50.570;8.532;2022-08-21T06:09:42;13.25;;;8.07;;
23080;SDS011;11708;50.570;8.532;2022-08-21T06:12:09;12.90;;;8.98;;
23080;SDS011;11708;50.570;8.532;2022-08-21T06:14:37;11.88;;;7.68;;
23080;SDS011;11708;50.570;8.532;2022-08-21T06:17:04;12.95;;;7.32;;
23080;SDS011;11708;50.570;8.532;2022-08-21T06:19:31;9.32;;;7.15;;
23080;SDS011;11708;50.570;8.532;2022-08-21T06:22:00;10.63;;;7.55;;
23080;SDS011;11708;50.570;8.532;2022-08-21T06:24:26;11.13;;;7.03;;
23080;SDS011;11708;50.570;8.532;2022-08-21T06:26:52;11.63;;;7.40;;
23080;SDS011;11708;50.570;8.532;2022-08-21T06:29:18;10.90;;;7.30;;
23080;SDS011;11708;50.570;8.532;2022-08-21T06:31:45;12.85;;;7.90;;
23080;SDS011;11708;50.570;8.532;2022-08-21T06:34:12;12.93;;;7.30;;
23080;SDS011;11708;50.570;8.532;2022-08-21T06:36:38;10.77;;;7.28;;
23080;SDS011;11708;50.570;8.532;2022-08-21T06:39:03;12.00;;;6.90;;
23080;SDS011;11708;50.570;8.532;2022-08-21T06:41:29;11.98;;;8.18;;
23080;SDS011;11708;50.570;8.532;2022-08-21T06:43:55;11.13;;;7.28;;
23080;SDS011;11708;50.570;8.532;2022-08-21T06:46:21;10.15;;;6.72;;
23080;SDS011;11708;50.570;8.532;2022-08-21T06:48:48;17.70;;;7.00;;
23080;SDS011;11708;50.570;8.532;2022-08-21T06:51:14;9.80;;;6.82;;
23080;SDS011;11708;50.570;8.532;2022-08-21T06:53:39;11.73;;;6.57;;
23080;SDS011;11708;50.570;8.532;2022-08-21T06:56:08;10.43;;;6.13;;
23080;SDS011;11708;50.570;8.532;2022-08-21T06:58:34;11.73;;;6.65;;
23080;SDS011;11708;50.570;8.532;2022-08-21T07:01:00;12.30;;;6.65;;
23080;SDS011;11708;50.570;8.532;2022-08-21T07:03:27;10.82;;;6.15;;
23080;SDS011;11708;50.570;8.532;2022-08-21T07:05:57;14.80;;;6.93;;
23080;SDS011;11708;50.570;8.532;2022-08-21T07:08:23;12.82;;;6.43;;
23080;SDS011;11708;50.570;8.532;2022-08-21T07:10:50;13.57;;;6.72;;
23080;SDS011;11708;50.570;8.532;2022-08-21T07:13:17;9.60;;;6.45;;
23080;SDS011;11708;50.570;8.532;2022-08-21T07:15:43;11.23;;;5.80;;
23080;SDS011;11708;50.570;8.532;2022-08-21T07:18:09;10.93;;;6.38;;
23080;SDS011;11708;50.570;8.532;2022-08-21T07:20:37;8.23;;;5.30;;
23080;SDS011;11708;50.570;8.532;2022-08-21T07:23:08;10.15;;;6.00;;
23080;SDS011;11708;50.570;8.532;2022-08-21T07:25:36;11.15;;;6.47;;
23080;SDS011;11708;50.570;8.532;2022-08-21T07:28:03;11.30;;;6.53;;
23080;SDS011;11708;50.570;8.532;2022-08-21T07:30:28;14.25;;;6.75;;
23080;SDS011;11708;50.570;8.532;2022-08-21T07:32:54;14.07;;;6.57;;
23080;SDS011;11708;50.570;8.532;2022-08-21T07:35:20;8.90;;;6.60;;
23080;SDS011;11708;50.570;8.532;2022-08-21T07:37:46;11.40;;;6.78;;
23080;SDS011;11708;50.570;8.532;2022-08-21T07:40:12;9.65;;;6.22;;
23080;SDS011;11708;50.570;8.532;2022-08-21T07:42:39;10.45;;;6.80;;
23080;SDS011;11708;50.570;8.532;2022-08-21T07:45:06;10.77;;;5.97;;
23080;SDS011;11708;50.570;8.532;2022-08-21T07:47:32;9.55;;;6.30;;
23080;SDS011;11708;50.570;8.532;2022-08-21T07:49:57;11.52;;;6.18;;
23080;SDS011;11708;50.570;8.532;2022-08-21T07:52:23;9.05;;;6.20;;
23080;SDS011;11708;50.570;8.532;2022-08-21T07:54:49;13.88;;;6.43;;
23080;SDS011;11708;50.570;8.532;2022-08-21T07:57:14;10.77;;;6.50;;
23080;SDS011;11708;50.570;8.532;2022-08-21T07:59:40;12.43;;;6.65;;
23080;SDS011;11708;50.570;8.532;2022-08-21T08:02:06;11.40;;;6.63;;
23080;SDS011;11708;50.570;8.532;2022-08-21T08:04:31;8.27;;;6.65;;
23080;SDS011;11708;50.570;8.532;2022-08-21T08:06:57;7.88;;;5.65;;
23080;SDS011;11708;50.570;8.532;2022-08-21T08:09:23;9.20;;;5.82;;
23080;SDS011;11708;50.570;8.532;2022-08-21T08:11:48;13.68;;;6.00;;
23080;SDS011;11708;50.570;8.532;2022-08-21T08:14:14;10.35;;;5.82;;
23080;SDS011;11708;50.570;8.532;2022-08-21T08:16:43;11.85;;;6.13;;
23080;SDS011;11708;50.570;8.532;2022-08-21T08:19:09;11.18;;;6.30;;
23080;SDS011;11708;50.570;8.532;2022-08-21T08:21:34;12.80;;;5.85;;
23080;SDS011;11708;50.570;8.532;2022-08-21T08:24:02;11.70;;;6.15;;
23080;SDS011;11708;50.570;8.532;2022-08-21T08:26:28;7.97;;;5.80;;
23080;SDS011;11708;50.570;8.532;2022-08-21T08:28:56;10.98;;;5.40;;
23080;SDS011;11708;50.570;8.532;2022-08-21T08:31:22;12.32;;;5.90;;
23080;SDS011;11708;50.570;8.532;2022-08-21T08:33:48;11.00;;;5.55;;
23080;SDS011;11708;50.570;8.532;2022-08-21T08:36:17;10.18;;;5.63;;
23080;SDS011;11708;50.570;8.532;2022-08-21T08:38:44;12.70;;;5.35;;
23080;SDS011;11708;50.570;8.532;2022-08-21T08:41:18;10.40;;;5.13;;
23080;SDS011;11708;50.570;8.532;2022-08-21T08:43:51;10.30;;;5.60;;
23080;SDS011;11708;50.570;8.532;2022-08-21T08:46:20;10.15;;;5.68;;
23080;SDS011;11708;50.570;8.532;2022-08-21T08:48:58;12.95;;;6.05;;
23080;SDS011;11708;50.570;8.532;2022-08-21T08:51:40;11.75;;;6.00;;
23080;SDS011;11708;50.570;8.532;2022-08-21T08:54:13;10.98;;;7.43;;
23080;SDS011;11708;50.570;8.532;2022-08-21T08:56:43;12.15;;;7.18;;
23080;SDS011;11708;50.570;8.532;2022-08-21T08:59:21;10.85;;;5.78;;
23080;SDS011;11708;50.570;8.532;2022-08-21T09:01:52;15.32;;;7.40;;
23080;SDS011;11708;50.570;8.532;2022-08-21T09:04:21;14.75;;;7.70;;
23080;SDS011;11708;50.570;8.532;2022-08-21T09:06:56;9.68;;;6.32;;
23080;SDS011;11708;50.570;8.532;2022-08-21T09:12:29;13.98;;;6.13;;
23080;SDS011;11708;50.570;8.532;2022-08-21T09:15:37;13.48;;;5.78;;
23080;SDS011;11708;50.570;8.532;2022-08-21T09:21:03;13.05;;;4.45;;
23080;SDS011;11708;50.570;8.532;2022-08-21T09:23:59;9.70;;;3.97;;
23080;SDS011;11708;50.570;8.532;2022-08-21T09:26:26;7.32;;;3.15;;
23080;SDS011;11708;50.570;8.532;2022-08-21T09:29:01;9.82;;;4.72;;
23080;SDS011;11708;50.570;8.532;2022-08-21T09:33:58;9.40;;;3.50;;
23080;SDS011;11708;50.570;8.532;2022-08-21T09:36:24;10.68;;;4.22;;
23080;SDS011;11708;50.570;8.532;2022-08-21T09:38:55;11.63;;;4.30;;
23080;SDS011;11708;50.570;8.532;2022-08-21T09:41:29;9.30;;;4.15;;
23080;SDS011;11708;50.570;8.532;2022-08-21T09:43:57;7.90;;;4.28;;
23080;SDS011;11708;50.570;8.532;2022-08-21T09:46:24;5.93;;;3.42;;
23080;SDS011;11708;50.570;8.532;2022-08-21T09:48:52;9.45;;;3.90;;
23080;SDS011;11708;50.570;8.532;2022-08-21T09:51:20;6.70;;;4.03;;
23080;SDS011;11708;50.570;8.532;2022-08-21T09:53:49;12.00;;;4.05;;
23080;SDS011;11708;50.570;8.532;2022-08-21T09:56:19;9.30;;;4.55;;
23080;SDS011;11708;50.570;8.532;2022-08-21T09:59:28;11.18;;;4.18;;
23080;SDS011;11708;50.570;8.532;2022-08-21T10:01:57;10.18;;;4.50;;
23080;SDS011;11708;50.570;8.532;2022-08-21T10:04:29;10.05;;;3.95;;
23080;SDS011;11708;50.570;8.532;2022-08-21T10:07:09;10.10;;;3.80;;
23080;SDS011;11708;50.570;8.532;2022-08-21T10:09:36;4.78;;;3.80;;
23080;SDS011;11708;50.570;8.532;2022-08-21T10:15:06;6.07;;;4.20;;
23080;SDS011;11708;50.570;8.532;2022-08-21T10:20:20;9.55;;;3.83;;
23080;SDS011;11708;50.570;8.532;2022-08-21T10:22:55;7.90;;;4.13;;
23080;SDS011;11708;50.570;8.532;2022-08-21T10:26:14;7.53;;;3.80;;
23080;SDS011;11708;50.570;8.532;2022-08-21T10:31:29;11.02;;;4.18;;
23080;SDS011;11708;50.570;8.532;2022-08-21T10:34:19;4.88;;;3.55;;
23080;SDS011;11708;50.570;8.532;2022-08-21T10:37:07;8.80;;;3.70;;
23080;SDS011;11708;50.570;8.532;2022-08-21T10:45:31;9.40;;;3.42;;
23080;SDS011;11708;50.570;8.532;2022-08-21T10:48:21;7.30;;;3.55;;
23080;SDS011;11708;50.570;8.532;2022-08-21T10:53:55;6.97;;;3.75;;
23080;SDS011;11708;50.570;8.532;2022-08-21T10:56:48;7.82;;;3.22;;
23080;SDS011;11708;50.570;8.532;2022-08-21T11:02:24;6.50;;;3.35;;
23080;SDS011;11708;50.570;8.532;2022-08-21T11:05:16;5.07;;;3.53;;
23080;SDS011;11708;50.570;8.532;2022-08-21T11:07:55;7.18;;;3.70;;
23080;SDS011;11708;50.570;8.532;2022-08-21T11:10:46;9.85;;;3.38;;
23080;SDS011;11708;50.570;8.532;2022-08-21T11:13:30;5.20;;;3.10;;
23080;SDS011;11708;50.570;8.532;2022-08-21T11:16:07;6.88;;;3.50;;
23080;SDS011;11708;50.570;8.532;2022-08-21T11:18:45;5.50;;;3.42;;
23080;SDS011;11708;50.570;8.532;2022-08-21T11:21:36;4.18;;;3.10;;
23080;SDS011;11708;50.570;8.532;2022-08-21T11:24:09;7.57;;;3.33;;
23080;SDS011;11708;50.570;8.532;2022-08-21T11:27:13;5.07;;;2.78;;
23080;SDS011;11708;50.570;8.532;2022-08-21T11:29:48;8.05;;;3.13;;
23080;SDS011;11708;50.570;8.532;2022-08-21T11:35:31;6.63;;;3.08;;
23080;SDS011;11708;50.570;8.532;2022-08-21T11:38:04;5.05;;;2.60;;
23080;SDS011;11708;50.570;8.532;2022-08-21T11:44:08;6.10;;;2.75;;
23080;SDS011;11708;50.570;8.532;2022-08-21T11:46:53;7.78;;;3.35;;
23080;SDS011;11708;50.570;8.532;2022-08-21T11:49:56;6.93;;;3.22;;
23080;SDS011;11708;50.570;8.532;2022-08-21T11:52:25;4.32;;;2.80;;
23080;SDS011;11708;50.570;8.532;2022-08-21T11:55:00;5.35;;;2.92;;
23080;SDS011;11708;50.570;8.532;2022-08-21T11:57:32;5.63;;;3.00;;
23080;SDS011;11708;50.570;8.532;2022-08-21T12:02:29;5.40;;;3.15;;
23080;SDS011;11708;50.570;8.532;2022-08-21T12:05:02;5.93;;;2.80;;
23080;SDS011;11708;50.570;8.532;2022-08-21T12:07:48;4.72;;;2.70;;
23080;SDS011;11708;50.570;8.532;2022-08-21T12:10:31;4.47;;;2.70;;
23080;SDS011;11708;50.570;8.532;2022-08-21T12:13:22;3.63;;;2.60;;
23080;SDS011;11708;50.570;8.532;2022-08-21T12:15:51;6.45;;;2.95;;
23080;SDS011;11708;50.570;8.532;2022-08-21T12:18:49;6.47;;;2.72;;
23080;SDS011;11708;50.570;8.532;2022-08-21T12:21:25;4.95;;;2.80;;
23080;SDS011;11708;50.570;8.532;2022-08-21T12:24:00;4.22;;;2.42;;
23080;SDS011;11708;50.570;8.532;2022-08-21T12:29:16;4.25;;;2.95;;
23080;SDS011;11708;50.570;8.532;2022-08-21T12:32:02;5.18;;;2.85;;
23080;SDS011;11708;50.570;8.532;2022-08-21T12:34:53;4.38;;;2.63;;
23080;SDS011;11708;50.570;8.532;2022-08-21T12:37:39;4.57;;;2.50;;
23080;SDS011;11708;50.570;8.532;2022-08-21T12:40:36;3.63;;;2.70;;
23080;SDS011;11708;50.570;8.532;2022-08-21T12:43:05;7.38;;;3.20;;
23080;SDS011;11708;50.570;8.532;2022-08-21T12:45:44;5.70;;;2.63;;
23080;SDS011;11708;50.570;8.532;2022-08-21T12:51:10;4.72;;;2.45;;
23080;SDS011;11708;50.570;8.532;2022-08-21T12:53:45;5.18;;;2.72;;
23080;SDS011;11708;50.570;8.532;2022-08-21T12:56:21;4.70;;;2.50;;
23080;SDS011;11708;50.570;8.532;2022-08-21T12:59:00;4.22;;;2.80;;
23080;SDS011;11708;50.570;8.532;2022-08-21T13:01:39;3.83;;;2.30;;
23080;SDS011;11708;50.570;8.532;2022-08-21T13:04:14;3.90;;;2.42;;
23080;SDS011;11708;50.570;8.532;2022-08-21T13:06:46;4.88;;;2.47;;
23080;SDS011;11708;50.570;8.532;2022-08-21T13:09:16;6.18;;;2.70;;
23080;SDS011;11708;50.570;8.532;2022-08-21T13:11:45;3.45;;;2.60;;
23080;SDS011;11708;50.570;8.532;2022-08-21T13:14:17;3.78;;;2.33;;
23080;SDS011;11708;50.570;8.532;2022-08-21T13:16:58;3.13;;;2.38;;
23080;SDS011;11708;50.570;8.532;2022-08-21T13:19:25;3.13;;;2.33;;
23080;SDS011;11708;50.570;8.532;2022-08-21T13:21:51;3.85;;;2.05;;
23080;SDS011;11708;50.570;8.532;2022-08-21T13:26:48;2.70;;;2.08;;
23080;SDS011;11708;50.570;8.532;2022-08-21T13:29:15;3.90;;;2.05;;
23080;SDS011;11708;50.570;8.532;2022-08-21T13:31:46;4.50;;;2.20;;
23080;SDS011;11708;50.570;8.532;2022-08-21T13:34:24;3.78;;;2.17;;
23080;SDS011;11708;50.570;8.532;2022-08-21T13:36:52;2.42;;;1.80;;
23080;SDS011;11708;50.570;8.532;2022-08-21T13:39:22;4.93;;;1.90;;
23080;SDS011;11708;50.570;8.532;2022-08-21T13:41:50;4.35;;;1.92;;
23080;SDS011;11708;50.570;8.532;2022-08-21T13:44:24;4.03;;;2.05;;
23080;SDS011;11708;50.570;8.532;2022-08-21T13:47:02;3.22;;;2.03;;
23080;SDS011;11708;50.570;8.532;2022-08-21T13:49:31;3.25;;;1.90;;
23080;SDS011;11708;50.570;8.532;2022-08-21T13:51:59;2.00;;;1.80;;
23080;SDS011;11708;50.570;8.532;2022-08-21T13:54:26;4.60;;;2.53;;
23080;SDS011;11708;50.570;8.532;2022-08-21T13:57:16;3.00;;;2.20;;
23080;SDS011;11708;50.570;8.532;2022-08-21T13:59:46;3.80;;;2.17;;
23080;SDS011;11708;50.570;8.532;2022-08-21T14:02:13;2.25;;;1.70;;
23080;SDS011;11708;50.570;8.532;2022-08-21T14:04:51;2.45;;;1.70;;
23080;SDS011;11708;50.570;8.532;2022-08-21T14:07:23;2.33;;;1.90;;
23080;SDS011;11708;50.570;8.532;2022-08-21T14:09:53;3.88;;;1.67;;
23080;SDS011;11708;50.570;8.532;2022-08-21T14:12:24;1.85;;;1.73;;
23080;SDS011;11708;50.570;8.532;2022-08-21T14:14:53;1.85;;;1.60;;
23080;SDS011;11708;50.570;8.532;2022-08-21T14:17:34;2.78;;;1.92;;
23080;SDS011;11708;50.570;8.532;2022-08-21T14:20:02;3.58;;;2.00;;
23080;SDS011;11708;50.570;8.532;2022-08-21T14:25:03;3.35;;;1.98;;
23080;SDS011;11708;50.570;8.532;2022-08-21T14:27:32;2.67;;;1.80;;
23080;SDS011;11708;50.570;8.532;2022-08-21T14:30:01;3.22;;;2.13;;
23080;SDS011;11708;50.570;8.532;2022-08-21T14:32:41;3.10;;;1.70;;
23080;SDS011;11708;50.570;8.532;2022-08-21T14:35:07;4.13;;;1.67;;
23080;SDS011;11708;50.570;8.532;2022-08-21T14:37:34;3.22;;;2.05;;
23080;SDS011;11708;50.570;8.532;2022-08-21T14:40:00;4.10;;;1.80;;
23080;SDS011;11708;50.570;8.532;2022-08-21T14:42:26;2.05;;;1.48;;
23080;SDS011;11708;50.570;8.532;2022-08-21T14:44:53;3.92;;;2.00;;
23080;SDS011;11708;50.570;8.532;2022-08-21T14:47:23;2.58;;;1.88;;
23080;SDS011;11708;50.570;8.532;2022-08-21T14:49:48;1.85;;;1.52;;
23080;SDS011;11708;50.570;8.532;2022-08-21T14:52:15;4.57;;;1.60;;
23080;SDS011;11708;50.570;8.532;2022-08-21T14:54:40;2.92;;;1.60;;
23080;SDS011;11708;50.570;8.532;2022-08-21T14:57:07;4.80;;;1.80;;
23080;SDS011;11708;50.570;8.532;2022-08-21T14:59:35;3.05;;;1.67;;
23080;SDS011;11708;50.570;8.532;2022-08-21T15:02:02;3.47;;;1.88;;
23080;SDS011;11708;50.570;8.532;2022-08-21T15:04:29;3.45;;;1.80;;
23080;SDS011;11708;50.570;8.532;2022-08-21T15:06:55;2.67;;;1.70;;
23080;SDS011;11708;50.570;8.532;2022-08-21T15:09:21;3.72;;;1.70;;
23080;SDS011;11708;50.570;8.532;2022-08-21T15:11:47;5.18;;;2.05;;
23080;SDS011;11708;50.570;8.532;2022-08-21T15:14:20;3.25;;;1.48;;
23080;SDS011;11708;50.570;8.532;2022-08-21T15:16:48;4.22;;;1.88;;
23080;SDS011;11708;50.570;8.532;2022-08-21T15:19:15;3.42;;;1.60;;
23080;SDS011;11708;50.570;8.532;2022-08-21T15:21:40;2.97;;;1.50;;
23080;SDS011;11708;50.570;8.532;2022-08-21T15:24:06;3.40;;;2.00;;
23080;SDS011;11708;50.570;8.532;2022-08-21T15:26:32;4.10;;;2.15;;
23080;SDS011;11708;50.570;8.532;2022-08-21T15:29:02;2.97;;;1.67;;
23080;SDS011;11708;50.570;8.532;2022-08-21T15:31:31;4.53;;;1.95;;
23080;SDS011;11708;50.570;8.532;2022-08-21T15:33:56;3.25;;;1.70;;
23080;SDS011;11708;50.570;8.532;2022-08-21T15:36:22;2.42;;;1.70;;
23080;SDS011;11708;50.570;8.532;2022-08-21T15:38:48;2.58;;;1.80;;
23080;SDS011;11708;50.570;8.532;2022-08-21T15:41:14;2.17;;;1.48;;
23080;SDS011;11708;50.570;8.532;2022-08-21T15:43:41;2.05;;;1.40;;
23080;SDS011;11708;50.570;8.532;2022-08-21T15:46:10;3.17;;;1.83;;
23080;SDS011;11708;50.570;8.532;2022-08-21T15:48:38;2.10;;;1.52;;
23080;SDS011;11708;50.570;8.532;2022-08-21T15:51:03;2.97;;;1.45;;